sensor_id;sensor_type;location;lat;lon;timestamp;pressure;altitude;pressure_sealevel;temperature;humidity
76397;BME280;66045;51.622;5.526;2023-04-06T00:00:22;101830.66;;;13.13;58.49
76397;BME280;66045;51.622;5.526;2023-04-06T00:02:47;101829.75;;;13.13;58.55
76397;BME280;66045;51.622;5.526;2023-04-06T00:05:13;101834.16;;;13.12;58.23
76397;BME280;66045;51.622;5.526;2023-04-06T00:07:38;101833.28;;;13.12;58.75
76397;BME280;66045;51.622;5.526;2023-04-06T00:10:03;101833.28;;;13.12;58.39
76397;BME280;66045;51.622;5.526;2023-04-06T00:12:29;101831.53;;;13.12;58.38
76397;BME280;66045;51.622;5.526;2023-04-06T00:14:55;101826.25;;;13.12;58.43
76397;BME280;66045;51.622;5.526;2023-04-06T00:17:20;101831.56;;;13.14;58.48
76397;BME280;66045;51.622;5.526;2023-04-06T00:19:45;101826.25;;;13.12;58.43
76397;BME280;66045;51.622;5.526;2023-04-06T00:22:10;101826.25;;;13.12;58.69
76397;BME280;66045;51.622;5.526;2023-04-06T00:24:36;101823.59;;;13.12;58.50
76397;BME280;66045;51.622;5.526;2023-04-06T00:27:01;101825.34;;;13.13;58.36
76397;BME280;66045;51.622;5.526;2023-04-06T00:29:27;101821.84;;;13.13;58.40
76397;BME280;66045;51.622;5.526;2023-04-06T00:31:52;101820.06;;;13.13;58.29
76397;BME280;66045;51.622;5.526;2023-04-06T00:34:17;101810.38;;;13.12;58.44
76397;BME280;66045;51.622;5.526;2023-04-06T00:36:42;101805.97;;;13.13;58.51
76397;BME280;66045;51.622;5.526;2023-04-06T00:39:08;101804.22;;;13.13;58.50
76397;BME280;66045;51.622;5.526;2023-04-06T00:41:33;101805.97;;;13.13;58.49
76397;BME280;66045;51.622;5.526;2023-04-06T00:43:58;101802.47;;;13.14;58.45
76397;BME280;66045;51.622;5.526;2023-04-06T00:46:23;101799.84;;;13.14;58.55
76397;BME280;66045;51.622;5.526;2023-04-06T00:48:48;101801.59;;;13.15;58.68
76397;BME280;66045;51.622;5.526;2023-04-06T00:51:14;101802.47;;;13.15;58.54
76397;BME280;66045;51.622;5.526;2023-04-06T00:53:39;101798.06;;;13.14;58.67
76397;BME280;66045;51.622;5.526;2023-04-06T00:56:05;101788.38;;;13.15;58.59
76397;BME280;66045;51.622;5.526;2023-04-06T00:58:30;101791.91;;;13.15;58.40
76397;BME280;66045;51.622;5.526;2023-04-06T01:00:55;101781.34;;;13.15;58.31
76397;BME280;66045;51.622;5.526;2023-04-06T01:03:21;101785.75;;;13.15;58.42
76397;BME280;66045;51.622;5.526;2023-04-06T01:05:46;101783.13;;;13.16;58.44
76397;BME280;66045;51.622;5.526;2023-04-06T01:08:11;101777.84;;;13.16;58.41
76397;BME280;66045;51.622;5.526;2023-04-06T01:10:36;101772.56;;;13.16;58.34
76397;BME280;66045;51.622;5.526;2023-04-06T01:13:02;101778.72;;;13.17;58.42
76397;BME280;66045;51.622;5.526;2023-04-06T01:15:27;101764.63;;;13.18;58.39
76397;BME280;66045;51.622;5.526;2023-04-06T01:17:53;101769.03;;;13.17;58.43
76397;BME280;66045;51.622;5.526;2023-04-06T01:20:18;101767.25;;;13.18;58.52
76397;BME280;66045;51.622;5.526;2023-04-06T01:22:44;101769.91;;;13.18;58.45
76397;BME280;66045;51.622;5.526;2023-04-06T01:25:09;101763.75;;;13.17;58.52
76397;BME280;66045;51.622;5.526;2023-04-06T01:27:34;101764.63;;;13.18;58.64
76397;BME280;66045;51.622;5.526;2023-04-06T01:30:00;101763.75;;;13.17;58.44
76397;BME280;66045;51.622;5.526;2023-04-06T01:32:25;101759.34;;;13.18;58.58
76397;BME280;66045;51.622;5.526;2023-04-06T01:34:50;101754.03;;;13.18;58.44
76397;BME280;66045;51.622;5.526;2023-04-06T01:37:16;101753.16;;;13.19;58.32
76397;BME280;66045;51.622;5.526;2023-04-06T01:39:42;101745.22;;;13.19;58.44
76397;BME280;66045;51.622;5.526;2023-04-06T01:42:07;101739.94;;;13.19;58.36
76397;BME280;66045;51.622;5.526;2023-04-06T01:44:32;101742.59;;;13.19;58.51
76397;BME280;66045;51.622;5.526;2023-04-06T01:46:58;101735.56;;;13.19;58.41
76397;BME280;66045;51.622;5.526;2023-04-06T01:49:23;101739.97;;;13.20;58.28
76397;BME280;66045;51.622;5.526;2023-04-06T01:51:48;101729.38;;;13.17;58.60
76397;BME280;66045;51.622;5.526;2023-04-06T01:54:14;101735.56;;;13.19;58.37
76397;BME280;66045;51.622;5.526;2023-04-06T01:56:39;101731.16;;;13.20;58.51
76397;BME280;66045;51.622;5.526;2023-04-06T01:59:05;101735.56;;;13.21;58.44
76397;BME280;66045;51.622;5.526;2023-04-06T02:01:30;101728.53;;;13.20;58.41
76397;BME280;66045;51.622;5.526;2023-04-06T02:03:56;101731.16;;;13.21;58.34
76397;BME280;66045;51.622;5.526;2023-04-06T02:06:21;101728.50;;;13.21;58.49
76397;BME280;66045;51.622;5.526;2023-04-06T02:08:46;101719.69;;;13.21;58.34
76397;BME280;66045;51.622;5.526;2023-04-06T02:11:11;101717.06;;;13.21;58.34
76397;BME280;66045;51.622;5.526;2023-04-06T02:13:37;101715.28;;;13.21;58.35
76397;BME280;66045;51.622;5.526;2023-04-06T02:16:02;101711.78;;;13.21;58.30
76397;BME280;66045;51.622;5.526;2023-04-06T02:18:28;101707.38;;;13.21;58.34
76397;BME280;66045;51.622;5.526;2023-04-06T02:20:53;101710.00;;;13.21;58.25
76397;BME280;66045;51.622;5.526;2023-04-06T02:23:19;101704.72;;;13.21;58.34
76397;BME280;66045;51.622;5.526;2023-04-06T02:25:44;101700.34;;;13.22;58.48
76397;BME280;66045;51.622;5.526;2023-04-06T02:28:09;101690.66;;;13.23;58.49
76397;BME280;66045;51.622;5.526;2023-04-06T02:30:35;101692.41;;;13.22;58.47
76397;BME280;66045;51.622;5.526;2023-04-06T02:33:00;101689.78;;;13.22;58.34
76397;BME280;66045;51.622;5.526;2023-04-06T02:35:27;101696.81;;;13.23;58.34
76397;BME280;66045;51.622;5.526;2023-04-06T02:37:52;101690.66;;;13.24;58.29
76397;BME280;66045;51.622;5.526;2023-04-06T02:40:17;101691.53;;;13.23;58.38
76397;BME280;66045;51.622;5.526;2023-04-06T02:42:43;101683.59;;;13.23;58.53
76397;BME280;66045;51.622;5.526;2023-04-06T02:45:08;101685.38;;;13.23;58.33
76397;BME280;66045;51.622;5.526;2023-04-06T02:47:33;101673.03;;;13.23;58.48
76397;BME280;66045;51.622;5.526;2023-04-06T02:49:58;101673.91;;;13.24;58.34
76397;BME280;66045;51.622;5.526;2023-04-06T02:52:24;101676.53;;;13.24;58.59
76397;BME280;66045;51.622;5.526;2023-04-06T02:54:49;101672.13;;;13.24;58.33
76397;BME280;66045;51.622;5.526;2023-04-06T02:57:16;101671.25;;;13.24;58.34
76397;BME280;66045;51.622;5.526;2023-04-06T02:59:41;101668.63;;;13.24;58.35
76397;BME280;66045;51.622;5.526;2023-04-06T03:02:06;101666.88;;;13.23;58.61
76397;BME280;66045;51.622;5.526;2023-04-06T03:04:31;101667.75;;;13.23;58.28
76397;BME280;66045;51.622;5.526;2023-04-06T03:06:57;101663.34;;;13.24;58.37
76397;BME280;66045;51.622;5.526;2023-04-06T03:09:22;101671.25;;;13.24;58.34
76397;BME280;66045;51.622;5.526;2023-04-06T03:11:47;101663.34;;;13.22;58.43
76397;BME280;66045;51.622;5.526;2023-04-06T03:14:12;101665.09;;;13.23;58.44
76397;BME280;66045;51.622;5.526;2023-04-06T03:16:38;101664.22;;;13.24;58.51
76397;BME280;66045;51.622;5.526;2023-04-06T03:19:03;101663.34;;;13.24;58.59
76397;BME280;66045;51.622;5.526;2023-04-06T03:21:28;101654.50;;;13.25;58.66
76397;BME280;66045;51.622;5.526;2023-04-06T03:23:53;101660.72;;;13.25;58.83
76397;BME280;66045;51.622;5.526;2023-04-06T03:26:19;101657.22;;;13.26;58.70
76397;BME280;66045;51.622;5.526;2023-04-06T03:28:44;101658.09;;;13.27;58.72
76397;BME280;66045;51.622;5.526;2023-04-06T03:31:09;101660.72;;;13.27;58.66
76397;BME280;66045;51.622;5.526;2023-04-06T03:33:35;101656.31;;;13.27;58.60
76397;BME280;66045;51.622;5.526;2023-04-06T03:36:00;101654.59;;;13.28;58.85
76397;BME280;66045;51.622;5.526;2023-04-06T03:38:25;101658.13;;;13.28;58.68
76397;BME280;66045;51.622;5.526;2023-04-06T03:40:50;101655.47;;;13.28;58.77
76397;BME280;66045;51.622;5.526;2023-04-06T03:43:16;101647.53;;;13.28;58.62
76397;BME280;66045;51.622;5.526;2023-04-06T03:45:41;101646.66;;;13.29;58.78
76397;BME280;66045;51.622;5.526;2023-04-06T03:48:06;101644.00;;;13.29;58.65
76397;BME280;66045;51.622;5.526;2023-04-06T03:50:31;101639.59;;;13.30;58.60
76397;BME280;66045;51.622;5.526;2023-04-06T03:52:57;101644.00;;;13.29;58.57
76397;BME280;66045;51.622;5.526;2023-04-06T03:55:22;101637.84;;;13.30;58.56
76397;BME280;66045;51.622;5.526;2023-04-06T03:57:47;101633.44;;;13.29;58.74
76397;BME280;66045;51.622;5.526;2023-04-06T04:00:13;101637.84;;;13.30;58.60
76397;BME280;66045;51.622;5.526;2023-04-06T04:02:38;101633.44;;;13.29;58.60
76397;BME280;66045;51.622;5.526;2023-04-06T04:05:03;101638.75;;;13.31;58.50
76397;BME280;66045;51.622;5.526;2023-04-06T04:07:29;101637.84;;;13.32;58.40
76397;BME280;66045;51.622;5.526;2023-04-06T04:09:54;101644.91;;;13.33;58.53
76397;BME280;66045;51.622;5.526;2023-04-06T04:12:20;101640.50;;;13.32;58.40
76397;BME280;66045;51.622;5.526;2023-04-06T04:14:45;101635.22;;;13.32;58.51
76397;BME280;66045;51.622;5.526;2023-04-06T04:17:10;101642.25;;;13.33;58.27
76397;BME280;66045;51.622;5.526;2023-04-06T04:19:35;101641.38;;;13.32;58.40
76397;BME280;66045;51.622;5.526;2023-04-06T04:22:01;101641.38;;;13.31;58.24
76397;BME280;66045;51.622;5.526;2023-04-06T04:24:29;101637.84;;;13.30;58.18
76397;BME280;66045;51.622;5.526;2023-04-06T04:26:54;101636.97;;;13.30;58.34
76397;BME280;66045;51.622;5.526;2023-04-06T04:29:20;101647.53;;;13.30;58.06
76397;BME280;66045;51.622;5.526;2023-04-06T04:31:47;101637.84;;;13.29;58.21
76397;BME280;66045;51.622;5.526;2023-04-06T04:34:12;101642.25;;;13.28;57.90
76397;BME280;66045;51.622;5.526;2023-04-06T04:36:38;101639.63;;;13.28;57.94
76397;BME280;66045;51.622;5.526;2023-04-06T04:39:03;101644.91;;;13.28;57.93
76397;BME280;66045;51.622;5.526;2023-04-06T04:41:28;101644.03;;;13.28;57.90
76397;BME280;66045;51.622;5.526;2023-04-06T04:43:53;101632.53;;;13.27;57.97
76397;BME280;66045;51.622;5.526;2023-04-06T04:46:19;101632.53;;;13.27;57.76
76397;BME280;66045;51.622;5.526;2023-04-06T04:48:44;101635.19;;;13.26;57.63
76397;BME280;66045;51.622;5.526;2023-04-06T04:51:09;101629.00;;;13.27;57.75
76397;BME280;66045;51.622;5.526;2023-04-06T04:53:35;101623.72;;;13.27;57.62
76397;BME280;66045;51.622;5.526;2023-04-06T04:56:00;101636.94;;;13.27;57.52
76397;BME280;66045;51.622;5.526;2023-04-06T04:58:25;101629.91;;;13.26;57.48
76397;BME280;66045;51.622;5.526;2023-04-06T05:00:51;101624.63;;;13.26;57.67
76397;BME280;66045;51.622;5.526;2023-04-06T05:03:18;101628.06;;;13.25;57.33
76397;BME280;66045;51.622;5.526;2023-04-06T05:05:45;101628.13;;;13.26;57.45
76397;BME280;66045;51.622;5.526;2023-04-06T05:08:11;101629.91;;;13.26;57.53
76397;BME280;66045;51.622;5.526;2023-04-06T05:10:36;101628.13;;;13.26;57.39
76397;BME280;66045;51.622;5.526;2023-04-06T05:13:01;101631.63;;;13.25;57.26
76397;BME280;66045;51.622;5.526;2023-04-06T05:15:27;101629.91;;;13.26;57.21
76397;BME280;66045;51.622;5.526;2023-04-06T05:17:52;101631.66;;;13.27;57.25
76397;BME280;66045;51.622;5.526;2023-04-06T05:20:18;101625.50;;;13.26;57.11
76397;BME280;66045;51.622;5.526;2023-04-06T05:22:43;101628.13;;;13.26;56.97
76397;BME280;66045;51.622;5.526;2023-04-06T05:25:08;101630.78;;;13.26;57.22
76397;BME280;66045;51.622;5.526;2023-04-06T05:27:33;101632.53;;;13.27;57.03
76397;BME280;66045;51.622;5.526;2023-04-06T05:29:59;101629.00;;;13.27;57.06
76397;BME280;66045;51.622;5.526;2023-04-06T05:32:25;101629.00;;;13.27;57.13
76397;BME280;66045;51.622;5.526;2023-04-06T05:34:50;101624.59;;;13.27;57.04
76397;BME280;66045;51.622;5.526;2023-04-06T05:37:15;101621.09;;;13.27;57.05
76397;BME280;66045;51.622;5.526;2023-04-06T05:39:41;101626.38;;;13.27;56.94
76397;BME280;66045;51.622;5.526;2023-04-06T05:42:06;101621.97;;;13.29;57.23
76397;BME280;66045;51.622;5.526;2023-04-06T05:44:32;101621.97;;;13.30;57.83
76397;BME280;66045;51.622;5.526;2023-04-06T05:46:57;101621.09;;;13.33;57.63
76397;BME280;66045;51.622;5.526;2023-04-06T05:49:22;101620.25;;;13.35;57.77
76397;BME280;66045;51.622;5.526;2023-04-06T05:51:47;101614.97;;;13.37;57.64
76397;BME280;66045;51.622;5.526;2023-04-06T05:54:13;101617.59;;;13.38;57.67
76397;BME280;66045;51.622;5.526;2023-04-06T05:56:38;101620.28;;;13.40;57.36
76397;BME280;66045;51.622;5.526;2023-04-06T05:59:03;101611.44;;;13.41;57.06
76397;BME280;66045;51.622;5.526;2023-04-06T06:01:28;101616.75;;;13.42;56.94
76397;BME280;66045;51.622;5.526;2023-04-06T06:03:54;101612.34;;;13.43;56.62
76397;BME280;66045;51.622;5.526;2023-04-06T06:06:19;101614.09;;;13.44;56.53
76397;BME280;66045;51.622;5.526;2023-04-06T06:08:44;101612.38;;;13.45;56.35
76397;BME280;66045;51.622;5.526;2023-04-06T06:11:10;101618.53;;;13.45;56.21
76397;BME280;66045;51.622;5.526;2023-04-06T06:13:35;101615.91;;;13.45;56.32
76397;BME280;66045;51.622;5.526;2023-04-06T06:16:00;101620.31;;;13.45;56.11
76397;BME280;66045;51.622;5.526;2023-04-06T06:18:29;101613.22;;;13.43;55.75
76397;BME280;66045;51.622;5.526;2023-04-06T06:20:55;101619.41;;;13.44;55.80
76397;BME280;66045;51.622;5.526;2023-04-06T06:23:20;101613.22;;;13.43;55.66
76397;BME280;66045;51.622;5.526;2023-04-06T06:25:46;101617.66;;;13.45;55.50
76397;BME280;66045;51.622;5.526;2023-04-06T06:28:11;101614.13;;;13.46;55.51
76397;BME280;66045;51.622;5.526;2023-04-06T06:30:36;101636.19;;;13.48;55.33
76397;BME280;66045;51.622;5.526;2023-04-06T06:33:01;101622.06;;;13.49;55.53
76397;BME280;66045;51.622;5.526;2023-04-06T06:35:27;101633.53;;;13.52;56.12
76397;BME280;66045;51.622;5.526;2023-04-06T06:37:52;101629.16;;;13.56;56.12
76397;BME280;66045;51.622;5.526;2023-04-06T06:40:17;101627.41;;;13.59;55.96
76397;BME280;66045;51.622;5.526;2023-04-06T06:42:43;101638.00;;;13.64;56.08
76397;BME280;66045;51.622;5.526;2023-04-06T06:45:08;101631.84;;;13.68;56.14
76397;BME280;66045;51.622;5.526;2023-04-06T06:47:34;101623.03;;;13.72;56.05
76397;BME280;66045;51.622;5.526;2023-04-06T06:49:59;101623.94;;;13.77;56.05
76397;BME280;66045;51.622;5.526;2023-04-06T06:52:24;101624.84;;;13.81;56.23
76397;BME280;66045;51.622;5.526;2023-04-06T06:54:50;101627.50;;;13.84;56.17
76397;BME280;66045;51.622;5.526;2023-04-06T06:57:15;101627.50;;;13.88;56.18
76397;BME280;66045;51.622;5.526;2023-04-06T06:59:40;101621.31;;;13.91;56.25
76397;BME280;66045;51.622;5.526;2023-04-06T07:02:05;101624.00;;;13.93;55.92
76397;BME280;66045;51.622;5.526;2023-04-06T07:04:31;101618.69;;;13.96;56.06
76397;BME280;66045;51.622;5.526;2023-04-06T07:06:56;101615.19;;;13.98;55.84
76397;BME280;66045;51.622;5.526;2023-04-06T07:09:21;101617.81;;;14.00;55.86
76397;BME280;66045;51.622;5.526;2023-04-06T07:11:47;101609.88;;;14.03;55.98
76397;BME280;66045;51.622;5.526;2023-04-06T07:14:14;101613.44;;;14.06;55.97
76397;BME280;66045;51.622;5.526;2023-04-06T07:16:39;101613.41;;;14.08;56.01
76397;BME280;66045;51.622;5.526;2023-04-06T07:19:04;101616.06;;;14.11;55.77
76397;BME280;66045;51.622;5.526;2023-04-06T07:21:30;101609.00;;;14.13;55.93
76397;BME280;66045;51.622;5.526;2023-04-06T07:23:55;101609.03;;;14.15;55.80
76397;BME280;66045;51.622;5.526;2023-04-06T07:26:20;101608.16;;;14.17;55.89
76397;BME280;66045;51.622;5.526;2023-04-06T07:28:45;101608.13;;;14.19;55.87
76397;BME280;66045;51.622;5.526;2023-04-06T07:31:11;101608.13;;;14.22;56.11
76397;BME280;66045;51.622;5.526;2023-04-06T07:33:36;101604.63;;;14.23;56.01
76397;BME280;66045;51.622;5.526;2023-04-06T07:36:01;101604.63;;;14.26;56.38
76397;BME280;66045;51.622;5.526;2023-04-06T07:38:26;101614.34;;;14.28;56.19
76397;BME280;66045;51.622;5.526;2023-04-06T07:40:52;101607.28;;;14.29;56.42
76397;BME280;66045;51.622;5.526;2023-04-06T07:43:17;101609.03;;;14.35;56.32
76397;BME280;66045;51.622;5.526;2023-04-06T07:45:42;101602.88;;;14.37;56.55
76397;BME280;66045;51.622;5.526;2023-04-06T07:48:08;101602.00;;;14.40;56.68
76397;BME280;66045;51.622;5.526;2023-04-06T07:50:33;101605.50;;;14.40;56.40
76397;BME280;66045;51.622;5.526;2023-04-06T07:52:58;101604.63;;;14.41;56.27
76397;BME280;66045;51.622;5.526;2023-04-06T07:55:24;101608.16;;;14.42;56.52
76397;BME280;66045;51.622;5.526;2023-04-06T07:57:50;101600.19;;;14.42;56.67
76397;BME280;66045;51.622;5.526;2023-04-06T08:00:15;101601.09;;;14.44;56.67
76397;BME280;66045;51.622;5.526;2023-04-06T08:02:40;101601.97;;;14.44;56.56
76397;BME280;66045;51.622;5.526;2023-04-06T08:05:06;101605.50;;;14.43;56.47
76397;BME280;66045;51.622;5.526;2023-04-06T08:07:32;101605.50;;;14.43;56.74
76397;BME280;66045;51.622;5.526;2023-04-06T08:09:57;101607.28;;;14.43;56.77
76397;BME280;66045;51.622;5.526;2023-04-06T08:12:22;101607.28;;;14.43;57.00
76397;BME280;66045;51.622;5.526;2023-04-06T08:14:48;101603.72;;;14.42;57.08
76397;BME280;66045;51.622;5.526;2023-04-06T08:17:13;101610.81;;;14.43;56.98
76397;BME280;66045;51.622;5.526;2023-04-06T08:19:38;101613.44;;;14.42;56.79
76397;BME280;66045;51.622;5.526;2023-04-06T08:22:04;101606.38;;;14.42;56.71
76397;BME280;66045;51.622;5.526;2023-04-06T08:24:29;101604.63;;;14.41;56.57
76397;BME280;66045;51.622;5.526;2023-04-06T08:26:55;101609.91;;;14.41;56.44
76397;BME280;66045;51.622;5.526;2023-04-06T08:29:21;101610.78;;;14.42;56.37
76397;BME280;66045;51.622;5.526;2023-04-06T08:31:46;101617.84;;;14.41;56.23
76397;BME280;66045;51.622;5.526;2023-04-06T08:34:11;101616.09;;;14.40;56.31
76397;BME280;66045;51.622;5.526;2023-04-06T08:36:36;101611.66;;;14.39;56.05
76397;BME280;66045;51.622;5.526;2023-04-06T08:39:02;101611.66;;;14.39;56.07
76397;BME280;66045;51.622;5.526;2023-04-06T08:41:27;101605.50;;;14.40;56.06
76397;BME280;66045;51.622;5.526;2023-04-06T08:46:18;101617.84;;;14.41;55.92
76397;BME280;66045;51.622;5.526;2023-04-06T08:48:43;101612.56;;;14.43;55.71
76397;BME280;66045;51.622;5.526;2023-04-06T08:51:09;101617.84;;;14.44;55.76
76397;BME280;66045;51.622;5.526;2023-04-06T08:53:35;101613.44;;;14.45;55.80
76397;BME280;66045;51.622;5.526;2023-04-06T08:56:00;101613.44;;;14.45;55.81
76397;BME280;66045;51.622;5.526;2023-04-06T08:58:26;101617.84;;;14.44;55.60
76397;BME280;66045;51.622;5.526;2023-04-06T09:00:53;101613.44;;;14.45;55.54
76397;BME280;66045;51.622;5.526;2023-04-06T09:03:19;101617.00;;;14.45;55.53
76397;BME280;66045;51.622;5.526;2023-04-06T09:05:45;101620.53;;;14.46;55.64
76397;BME280;66045;51.622;5.526;2023-04-06T09:08:11;101615.22;;;14.46;55.42
76397;BME280;66045;51.622;5.526;2023-04-06T09:10:39;101619.63;;;14.47;55.33
76397;BME280;66045;51.622;5.526;2023-04-06T09:13:05;101619.63;;;14.48;55.23
76397;BME280;66045;51.622;5.526;2023-04-06T09:15:30;101616.09;;;14.49;55.18
76397;BME280;66045;51.622;5.526;2023-04-06T09:17:56;101620.50;;;14.50;55.15
76397;BME280;66045;51.622;5.526;2023-04-06T09:20:22;101622.28;;;14.51;55.14
76397;BME280;66045;51.622;5.526;2023-04-06T09:22:47;101617.00;;;14.53;55.04
76397;BME280;66045;51.622;5.526;2023-04-06T09:25:18;101619.66;;;14.53;55.04
76397;BME280;66045;51.622;5.526;2023-04-06T09:27:44;101617.00;;;14.53;54.99
76397;BME280;66045;51.622;5.526;2023-04-06T09:30:10;101614.34;;;14.53;54.94
76397;BME280;66045;51.622;5.526;2023-04-06T09:32:58;101613.47;;;14.52;54.75
76397;BME280;66045;51.622;5.526;2023-04-06T09:35:24;101617.88;;;14.53;54.69
76397;BME280;66045;51.622;5.526;2023-04-06T09:37:51;101610.84;;;14.54;54.72
76397;BME280;66045;51.622;5.526;2023-04-06T09:40:17;101602.91;;;14.54;54.54
76397;BME280;66045;51.622;5.526;2023-04-06T09:42:47;101607.28;;;14.55;54.66
76397;BME280;66045;51.622;5.526;2023-04-06T09:45:13;101612.59;;;14.57;54.58
76397;BME280;66045;51.622;5.526;2023-04-06T09:47:39;101612.59;;;14.58;54.38
76397;BME280;66045;51.622;5.526;2023-04-06T09:50:05;101613.47;;;14.59;54.37
76397;BME280;66045;51.622;5.526;2023-04-06T09:52:33;101609.06;;;14.61;54.44
76397;BME280;66045;51.622;5.526;2023-04-06T09:54:59;101613.47;;;14.62;54.34
76397;BME280;66045;51.622;5.526;2023-04-06T09:57:32;101609.06;;;14.64;54.28
76397;BME280;66045;51.622;5.526;2023-04-06T10:00:05;101615.25;;;14.66;54.20
76397;BME280;66045;51.622;5.526;2023-04-06T10:07:38;101610.81;;;14.71;54.02
76397;BME280;66045;51.622;5.526;2023-04-06T10:10:04;101622.31;;;14.71;54.01
76397;BME280;66045;51.622;5.526;2023-04-06T10:12:29;101619.66;;;14.71;54.03
76397;BME280;66045;51.622;5.526;2023-04-06T10:14:55;101626.72;;;14.71;53.95
76397;BME280;66045;51.622;5.526;2023-04-06T10:17:20;101625.84;;;14.70;53.86
76397;BME280;66045;51.622;5.526;2023-04-06T10:19:51;101626.72;;;14.69;53.84
76397;BME280;66045;51.622;5.526;2023-04-06T10:22:33;101624.09;;;14.68;53.90
76397;BME280;66045;51.622;5.526;2023-04-06T10:24:59;101624.06;;;14.66;53.91
76397;BME280;66045;51.622;5.526;2023-04-06T10:27:29;101631.13;;;14.66;53.80
76397;BME280;66045;51.622;5.526;2023-04-06T10:30:01;101626.75;;;14.65;53.85
76397;BME280;66045;51.622;5.526;2023-04-06T10:32:33;101631.13;;;14.64;53.74
76397;BME280;66045;51.622;5.526;2023-04-06T10:35:10;101634.66;;;14.63;53.79
76397;BME280;66045;51.622;5.526;2023-04-06T10:38:01;101626.72;;;14.63;53.66
76397;BME280;66045;51.622;5.526;2023-04-06T10:40:27;101625.84;;;14.63;53.69
76397;BME280;66045;51.622;5.526;2023-04-06T10:42:52;101623.19;;;14.61;53.60
76397;BME280;66045;51.622;5.526;2023-04-06T10:45:25;101631.16;;;14.63;53.62
76397;BME280;66045;51.622;5.526;2023-04-06T10:47:54;101627.59;;;14.61;53.61
76397;BME280;66045;51.622;5.526;2023-04-06T10:50:19;101623.19;;;14.61;53.58
76397;BME280;66045;51.622;5.526;2023-04-06T10:52:45;101628.47;;;14.61;53.62
76397;BME280;66045;51.622;5.526;2023-04-06T10:55:12;101624.06;;;14.62;53.48
76397;BME280;66045;51.622;5.526;2023-04-06T10:57:37;101620.53;;;14.61;53.46
76397;BME280;66045;51.622;5.526;2023-04-06T11:00:04;101614.34;;;14.61;53.61
76397;BME280;66045;51.622;5.526;2023-04-06T11:02:30;101621.44;;;14.60;53.57
76397;BME280;66045;51.622;5.526;2023-04-06T11:04:56;101613.47;;;14.59;53.50
76397;BME280;66045;51.622;5.526;2023-04-06T11:07:22;101614.38;;;14.58;53.47
76397;BME280;66045;51.622;5.526;2023-04-06T11:09:49;101616.13;;;14.57;53.55
76397;BME280;66045;51.622;5.526;2023-04-06T11:12:22;101615.25;;;14.55;53.52
76397;BME280;66045;51.622;5.526;2023-04-06T11:15:01;101606.41;;;14.53;53.50
76397;BME280;66045;51.622;5.526;2023-04-06T11:17:31;101603.75;;;14.51;53.47
76397;BME280;66045;51.622;5.526;2023-04-06T11:19:57;101604.63;;;14.49;53.54
76397;BME280;66045;51.622;5.526;2023-04-06T11:22:23;101602.84;;;14.48;53.52
76397;BME280;66045;51.622;5.526;2023-04-06T11:24:48;101601.09;;;14.47;53.68
76397;BME280;66045;51.622;5.526;2023-04-06T11:27:14;101601.97;;;14.46;53.72
76397;BME280;66045;51.622;5.526;2023-04-06T11:29:41;101591.38;;;14.46;53.62
76397;BME280;66045;51.622;5.526;2023-04-06T11:32:06;101587.84;;;14.45;53.70
76397;BME280;66045;51.622;5.526;2023-04-06T11:34:33;101588.72;;;14.44;53.64
76397;BME280;66045;51.622;5.526;2023-04-06T11:37:00;101590.50;;;14.44;53.65
76397;BME280;66045;51.622;5.526;2023-04-06T11:39:27;101586.94;;;14.42;53.68
76397;BME280;66045;51.622;5.526;2023-04-06T11:41:53;101597.53;;;14.42;53.76
76397;BME280;66045;51.622;5.526;2023-04-06T11:44:31;101586.09;;;14.40;53.73
76397;BME280;66045;51.622;5.526;2023-04-06T11:46:57;101580.81;;;14.40;53.70
76397;BME280;66045;51.622;5.526;2023-04-06T11:49:26;101578.13;;;14.38;53.77
76397;BME280;66045;51.622;5.526;2023-04-06T11:51:51;101571.97;;;14.38;53.88
76397;BME280;66045;51.622;5.526;2023-04-06T11:54:16;101568.41;;;14.39;53.62
76397;BME280;66045;51.622;5.526;2023-04-06T11:56:42;101569.31;;;14.41;53.68
76397;BME280;66045;51.622;5.526;2023-04-06T11:59:11;101568.44;;;14.43;53.53
76397;BME280;66045;51.622;5.526;2023-04-06T12:01:44;101565.75;;;14.45;53.54
76397;BME280;66045;51.622;5.526;2023-04-06T12:04:09;101570.19;;;14.46;53.50
76397;BME280;66045;51.622;5.526;2023-04-06T12:06:34;101562.22;;;14.47;53.48
76397;BME280;66045;51.622;5.526;2023-04-06T12:09:00;101555.19;;;14.49;53.34
76397;BME280;66045;51.622;5.526;2023-04-06T12:11:25;101553.41;;;14.50;53.41
76397;BME280;66045;51.622;5.526;2023-04-06T12:13:50;101551.69;;;14.52;53.34
76397;BME280;66045;51.622;5.526;2023-04-06T12:16:16;101550.78;;;14.53;53.40
76397;BME280;66045;51.622;5.526;2023-04-06T12:18:41;101552.56;;;14.55;53.32
76397;BME280;66045;51.622;5.526;2023-04-06T12:21:06;101554.31;;;14.58;53.29
76397;BME280;66045;51.622;5.526;2023-04-06T12:23:31;101548.13;;;14.61;53.43
76397;BME280;66045;51.622;5.526;2023-04-06T12:25:57;101544.59;;;14.62;53.29
76397;BME280;66045;51.622;5.526;2023-04-06T12:28:22;101553.41;;;14.64;53.23
76397;BME280;66045;51.622;5.526;2023-04-06T12:30:51;101546.34;;;14.64;53.25
76397;BME280;66045;51.622;5.526;2023-04-06T12:33:17;101545.47;;;14.65;53.09
76397;BME280;66045;51.622;5.526;2023-04-06T12:35:42;101550.78;;;14.65;53.31
76397;BME280;66045;51.622;5.526;2023-04-06T12:38:07;101542.84;;;14.65;53.28
76397;BME280;66045;51.622;5.526;2023-04-06T12:40:36;101544.59;;;14.66;53.19
76397;BME280;66045;51.622;5.526;2023-04-06T12:43:01;101534.88;;;14.67;53.13
76397;BME280;66045;51.622;5.526;2023-04-06T12:45:26;101536.66;;;14.68;53.06
76397;BME280;66045;51.622;5.526;2023-04-06T12:47:51;101527.81;;;14.69;53.12
76397;BME280;66045;51.622;5.526;2023-04-06T12:50:17;101538.41;;;14.69;53.02